Korolev, Russia
Current Conditions -  °F | °C
As of 5:30 AM on Monday 22 Dec 2014 (Local Time) from UUEE Reporting Station
Broken Clouds Broken Clouds  
Wind Chill: 17°   Ceiling: 3200
Heat Index: 28°   Visibility: 6mi
Dew Point: 25°   Wind: 16mph
Humidity: 86%   Direction: 250°WSW
Pressure: 29.44"   Gusts: NA
Location:  55.93°N, 37.77°E
Report Text: UUEE 220230Z 25007MPS 9999 BKN032 M02/M04 Q0997 7551014525510145 NOSIG
Loading
Personal Weather Stations






























Interactive Weather Map New forecast layout! Learn more

10-Day Weather Forecast

Advertisements
Track Severe Weather on mobile